Time;durP1;ratioP1;P1;durP2;ratioP2;P2;SDS_P1;SDS_P2;PMS_P1;PMS_P2;Temp;Humidity;BMP_temperature;BMP_pressure;BME280_temperature;BME280_humidity;BME280_pressure;Samples;Min_cycle;Max_cycle;Signal;HPM_P1;HPM_P2
2022/03/09 00:00:10;;;;;;;11.15;7.10;;;;;;;5.50;42.66;102087.88;6215134;23;20032;-62
2022/03/09 00:02:36;;;;;;;13.48;7.97;;;;;;;5.48;42.53;102083.34;6215005;23;20051;-63
2022/03/09 00:05:02;;;;;;;12.02;7.47;;;;;;;5.46;42.86;102075.41;6215191;23;20001;-62
2022/03/09 00:07:27;;;;;;;12.02;8.13;;;;;;;5.46;42.47;102087.63;6215319;23;20001;-62
2022/03/09 00:09:54;;;;;;;13.68;7.10;;;;;;;5.42;42.38;102086.56;6213694;23;20005;-62
2022/03/09 00:12:19;;;;;;;14.25;7.85;;;;;;;5.37;42.56;102090.69;6215440;23;20004;-62
2022/03/09 00:14:45;;;;;;;11.55;6.78;;;;;;;5.40;44.73;102092.56;6215175;23;20071;-63
2022/03/09 00:17:11;;;;;;;12.55;7.40;;;;;;;5.41;42.78;102099.59;6215037;23;20011;-63
2022/03/09 00:19:36;;;;;;;11.52;7.72;;;;;;;5.47;42.37;102103.44;6215549;23;20304;-63
2022/03/09 00:22:02;;;;;;;13.32;7.57;;;;;;;5.41;42.27;102099.59;6213500;23;20033;-63
2022/03/09 00:24:28;;;;;;;11.57;7.10;;;;;;;5.41;42.08;102099.59;6217112;23;20005;-62
2022/03/09 00:26:53;;;;;;;13.38;7.50;;;;;;;5.43;42.51;102103.19;6217734;23;20051;-63
2022/03/09 00:29:19;;;;;;;10.30;7.22;;;;;;;5.41;42.00;102103.13;6217782;23;20027;-63
2022/03/09 00:31:44;;;;;;;18.05;7.25;;;;;;;5.43;42.38;102103.19;6217031;23;20054;-63
2022/03/09 00:34:10;;;;;;;13.48;7.50;;;;;;;5.44;42.44;102094.53;6216471;23;20443;-63
2022/03/09 00:36:36;;;;;;;15.40;7.60;;;;;;;5.49;41.86;102101.81;6216964;23;20080;-63
2022/03/09 00:39:02;;;;;;;13.27;8.27;;;;;;;5.47;42.84;102095.56;6215745;23;20416;-63
2022/03/09 00:41:28;;;;;;;12.90;7.32;;;;;;;5.43;42.88;102098.84;6216798;23;20008;-63
2022/03/09 00:43:53;;;;;;;14.52;7.95;;;;;;;5.44;42.11;102105.03;6217451;23;20004;-63
2022/03/09 00:46:18;;;;;;;16.70;7.93;;;;;;;5.44;41.71;102105.91;6216519;23;20039;-63
2022/03/09 00:48:44;;;;;;;13.15;7.53;;;;;;;5.38;42.03;102095.09;6217090;23;20068;-63
2022/03/09 00:51:09;;;;;;;12.90;7.63;;;;;;;5.34;42.36;102089.63;6216817;23;20450;-63
2022/03/09 00:53:35;;;;;;;14.40;7.25;;;;;;;5.33;42.07;102090.44;6216740;23;20363;-63
2022/03/09 00:56:00;;;;;;;11.88;7.00;;;;;;;5.26;42.24;102087.50;6216840;23;20012;-63
2022/03/09 00:58:26;;;;;;;13.40;7.05;;;;;;;5.25;42.27;102096.19;6215732;23;20358;-63
2022/03/09 01:00:51;;;;;;;12.27;7.32;;;;;;;5.16;42.50;102089.56;6216130;23;20032;-63
2022/03/09 01:03:22;;;;;;;11.50;6.90;;;;;;;5.00;43.22;102095.69;6216072;23;20008;-63
2022/03/09 01:05:48;;;;;;;13.00;7.15;;;;;;;4.89;42.89;102094.25;6216425;23;20004;-63
2022/03/09 01:08:13;;;;;;;12.13;7.20;;;;;;;4.92;43.08;102104.88;6215890;23;20422;-62
2022/03/09 01:10:39;;;;;;;14.52;7.40;;;;;;;4.96;42.81;102104.22;6216215;23;20011;-62
2022/03/09 01:13:04;;;;;;;12.00;7.30;;;;;;;4.97;42.94;102092.94;6216687;23;20424;-63
2022/03/09 01:15:30;;;;;;;11.95;7.82;;;;;;;4.98;43.20;102100.88;6216595;23;20008;-63
2022/03/09 01:17:56;;;;;;;11.18;6.68;;;;;;;5.02;42.80;102108.06;6216368;23;20007;-63
2022/03/09 01:20:21;;;;;;;10.45;6.72;;;;;;;5.01;42.69;102097.50;6216764;23;20009;-63
2022/03/09 01:22:47;;;;;;;12.60;7.63;;;;;;;4.88;42.64;102103.81;6216546;23;20029;-62
2022/03/09 01:25:12;;;;;;;9.85;6.68;;;;;;;4.89;42.52;102094.25;6216465;23;20076;-63
2022/03/09 01:27:37;;;;;;;13.15;7.43;;;;;;;4.82;42.87;102098.25;6214747;23;20387;-63
2022/03/09 01:30:04;;;;;;;13.43;7.20;;;;;;;4.69;43.63;102098.41;6214970;23;20005;-63
2022/03/09 01:32:30;;;;;;;14.77;7.38;;;;;;;4.56;43.40;102102.06;6215693;23;20012;-63
2022/03/09 01:34:55;;;;;;;12.25;7.07;;;;;;;4.46;44.06;102105.00;6215742;23;20000;-63
2022/03/09 01:37:21;;;;;;;12.32;7.30;;;;;;;4.39;44.67;102093.25;6216230;23;20008;-62
2022/03/09 01:39:46;;;;;;;12.48;6.55;;;;;;;4.45;44.76;102104.09;6216314;23;20005;-63
2022/03/09 01:42:12;;;;;;;14.43;7.28;;;;;;;4.55;43.76;102097.66;6216056;23;20012;-63
2022/03/09 01:44:38;;;;;;;14.48;7.10;;;;;;;4.58;44.17;102091.66;6214298;23;20009;-63
2022/03/09 01:47:03;;;;;;;13.10;7.65;;;;;;;4.63;43.55;102090.22;6214078;23;20092;-63
2022/03/09 01:49:29;;;;;;;16.08;7.03;;;;;;;4.62;43.23;102088.38;6216065;23;20005;-63
2022/03/09 01:52:00;;;;;;;12.55;7.25;;;;;;;4.60;44.02;102088.31;6215825;23;20004;-63
2022/03/09 01:54:28;;;;;;;11.50;7.05;;;;;;;4.63;44.00;102092.84;6216161;23;20004;-63
2022/03/09 01:56:55;;;;;;;14.13;7.45;;;;;;;4.62;43.42;102075.31;6216182;23;20055;-63
2022/03/09 01:59:20;;;;;;;11.77;7.30;;;;;;;4.67;43.40;102093.09;6216131;23;20009;-63
2022/03/09 02:01:47;;;;;;;12.40;7.50;;;;;;;4.64;43.77;102085.06;6215926;23;20501;-63
2022/03/09 02:04:13;;;;;;;16.05;7.40;;;;;;;4.67;44.65;102082.63;6215922;23;20000;-62
2022/03/09 02:06:39;;;;;;;13.77;7.15;;;;;;;4.67;43.66;102084.34;6216138;23;20075;-62
2022/03/09 02:11:51;;;;;;;10.95;6.68;;;;;;;4.62;43.55;102080.53;6216054;23;20338;-63
2022/03/09 02:14:35;;;;;;;14.20;6.70;;;;;;;4.61;44.00;102087.50;6216081;23;20083;-63
2022/03/09 02:17:13;;;;;;;11.75;7.13;;;;;;;4.55;43.37;102083.66;6215861;23;20045;-63
2022/03/09 02:19:40;;;;;;;15.05;7.40;;;;;;;4.53;45.15;102081.84;6216323;23;20014;-62
2022/03/09 02:22:16;;;;;;;13.25;7.18;;;;;;;4.50;44.11;102078.19;6215897;23;20009;-63
2022/03/09 02:24:42;;;;;;;12.65;7.32;;;;;;;4.63;43.91;102084.97;6213387;23;20009;-63
2022/03/09 02:27:07;;;;;;;21.52;7.15;;;;;;;4.58;43.69;102087.31;6215749;23;20039;-63
2022/03/09 02:29:33;;;;;;;13.30;7.50;;;;;;;4.56;43.46;102090.69;6216019;23;20055;-62
2022/03/09 02:32:02;;;;;;;16.23;7.10;;;;;;;4.56;44.02;102082.84;6216733;23;20008;-62
2022/03/09 02:34:29;;;;;;;14.23;7.15;;;;;;;4.58;43.34;102089.03;6217358;23;20331;-62
2022/03/09 02:36:54;;;;;;;13.23;7.57;;;;;;;4.45;44.13;102080.53;6215111;23;20078;-63
2022/03/09 02:39:21;;;;;;;11.98;7.05;;;;;;;4.37;44.43;102083.50;6215262;23;20365;-62
2022/03/09 02:41:47;;;;;;;14.25;7.07;;;;;;;4.26;44.47;102082.94;6215384;23;20009;-62
2022/03/09 02:44:12;;;;;;;15.40;7.45;;;;;;;4.27;44.61;102075.16;6215580;23;20437;-63
2022/03/09 02:46:37;;;;;;;13.85;7.63;;;;;;;4.24;44.72;102071.50;6215358;23;20340;-62
2022/03/09 02:49:03;;;;;;;14.63;7.60;;;;;;;4.24;45.00;102074.13;6215533;23;20012;-62
2022/03/09 02:51:28;;;;;;;12.10;8.02;;;;;;;4.24;45.00;102067.16;6215626;23;20088;-62
2022/03/09 02:53:54;;;;;;;14.82;7.65;;;;;;;4.16;45.30;102072.78;6215419;23;20000;-62
2022/03/09 02:56:19;;;;;;;12.88;7.47;;;;;;;4.00;45.43;102068.38;6215666;23;20076;-62
2022/03/09 02:58:45;;;;;;;13.55;7.85;;;;;;;4.03;45.69;102070.28;6215475;23;20011;-62
2022/03/09 03:01:13;;;;;;;13.45;8.07;;;;;;;4.04;45.96;102062.50;6215859;23;20423;-62
2022/03/09 03:03:42;;;;;;;14.95;7.47;;;;;;;4.05;46.79;102063.41;6213218;23;20105;-63
2022/03/09 03:06:11;;;;;;;13.70;8.30;;;;;;;4.03;45.97;102068.56;6213249;23;20008;-62
2022/03/09 03:08:40;;;;;;;14.77;7.68;;;;;;;4.06;46.07;102068.72;6214844;23;20004;-63
2022/03/09 03:11:08;;;;;;;13.82;8.07;;;;;;;3.98;45.72;102070.00;6215192;23;20015;-62
2022/03/09 03:13:34;;;;;;;17.88;8.27;;;;;;;3.87;46.67;102063.28;6215034;23;20008;-62
2022/03/09 03:16:00;;;;;;;17.13;8.05;;;;;;;3.88;47.16;102071.19;6215337;23;20446;-62
2022/03/09 03:18:25;;;;;;;13.57;7.82;;;;;;;3.84;46.99;102073.53;6215285;23;20000;-62
2022/03/09 03:20:54;;;;;;;18.02;8.30;;;;;;;3.85;46.30;102072.72;6215292;23;20005;-62
2022/03/09 03:23:28;;;;;;;12.98;8.00;;;;;;;3.84;46.25;102070.94;6215285;23;20004;-62
2022/03/09 03:25:56;;;;;;;12.85;8.05;;;;;;;3.77;46.95;102069.69;6215248;23;20078;-62
2022/03/09 03:28:22;;;;;;;14.68;7.72;;;;;;;3.80;47.12;102071.56;6214429;23;20015;-62
2022/03/09 03:30:49;;;;;;;12.60;7.80;;;;;;;3.84;46.59;102073.53;6215206;23;20039;-62
2022/03/09 03:33:16;;;;;;;16.25;7.60;;;;;;;3.71;47.06;102064.09;6215218;23;20004;-63
2022/03/09 03:35:42;;;;;;;14.13;7.80;;;;;;;3.63;46.65;102063.63;6215436;23;20058;-63
2022/03/09 03:38:08;;;;;;;17.08;7.82;;;;;;;3.60;46.84;102066.09;6215240;23;20416;-63
2022/03/09 03:40:34;;;;;;;15.50;8.02;;;;;;;3.67;46.68;102067.34;6215171;23;20004;-63
2022/03/09 03:42:59;;;;;;;16.55;8.18;;;;;;;3.59;47.10;102066.88;6215412;23;20306;-63
2022/03/09 03:45:25;;;;;;;13.00;7.43;;;;;;;3.58;47.11;102062.47;6215198;23;20415;-62
2022/03/09 03:47:52;;;;;;;13.80;7.68;;;;;;;3.60;46.57;102063.50;6214334;23;20012;-62
2022/03/09 03:50:18;;;;;;;13.75;7.53;;;;;;;3.59;46.66;102055.53;6215096;23;20039;-62
2022/03/09 03:52:43;;;;;;;12.00;7.68;;;;;;;3.50;47.05;102054.19;6215383;23;20000;-62
2022/03/09 03:55:09;;;;;;;15.60;8.13;;;;;;;3.45;47.43;102073.91;6215297;23;20008;-62
2022/03/09 03:57:34;;;;;;;13.60;7.93;;;;;;;3.35;47.40;102058.53;6215459;23;20253;-62
2022/03/09 04:00:00;;;;;;;15.00;7.68;;;;;;;3.24;47.90;102060.47;6217502;23;20000;-62
2022/03/09 04:02:26;;;;;;;13.63;7.78;;;;;;;3.14;48.64;102063.38;6217483;23;20005;-62
2022/03/09 04:04:52;;;;;;;12.52;7.65;;;;;;;3.15;48.46;102056.44;6217576;23;20005;-63
2022/03/09 04:07:18;;;;;;;11.35;7.20;;;;;;;3.24;48.54;102065.72;6217760;23;20011;-63
2022/03/09 04:09:44;;;;;;;15.95;8.18;;;;;;;3.19;47.58;102064.53;6214935;23;20067;-62
2022/03/09 04:12:09;;;;;;;13.73;7.47;;;;;;;3.14;48.08;102071.19;6216384;23;20005;-63
2022/03/09 04:14:35;;;;;;;14.43;7.85;;;;;;;3.01;48.35;102069.56;6217160;23;20419;-62
2022/03/09 04:17:01;;;;;;;14.80;7.13;;;;;;;2.97;48.98;102077.09;6217241;23;20016;-62
2022/03/09 04:19:27;;;;;;;13.25;7.63;;;;;;;2.88;49.09;102072.22;6217140;23;20028;-62
2022/03/09 04:21:52;;;;;;;14.05;7.88;;;;;;;2.81;49.10;102070.03;6216687;23;20015;-62
2022/03/09 04:24:18;;;;;;;14.40;7.55;;;;;;;2.83;48.44;102073.66;6217092;23;20035;-62
2022/03/09 04:26:44;;;;;;;14.07;7.80;;;;;;;2.95;49.04;102078.72;6217030;23;20011;-63
2022/03/09 04:29:09;;;;;;;16.27;8.00;;;;;;;2.94;48.45;102062.16;6216916;23;20062;-62
2022/03/09 04:31:34;;;;;;;15.32;8.18;;;;;;;2.84;49.08;102064.13;6215499;23;20012;-62
2022/03/09 04:34:00;;;;;;;14.40;7.78;;;;;;;2.70;49.33;102058.94;6216862;23;20011;-62
2022/03/09 04:36:25;;;;;;;13.88;7.45;;;;;;;2.71;49.45;102063.34;6216928;23;20028;-62
2022/03/09 04:38:51;;;;;;;11.02;6.80;;;;;;;2.78;50.35;102067.22;6217079;23;20011;-62
2022/03/09 04:41:16;;;;;;;14.25;7.30;;;;;;;2.84;48.88;102065.00;6216853;23;20490;-62
2022/03/09 04:43:42;;;;;;;12.18;7.32;;;;;;;2.91;48.83;102066.28;6216462;23;20005;-62
2022/03/09 04:46:08;;;;;;;12.88;7.63;;;;;;;2.81;49.17;102056.09;6216864;23;20000;-62
2022/03/09 04:48:34;;;;;;;12.30;7.18;;;;;;;2.69;49.71;102051.91;6216893;23;20076;-62
2022/03/09 04:51:02;;;;;;;12.65;7.40;;;;;;;2.71;49.60;102065.06;6216781;23;20008;-62
2022/03/09 04:53:28;;;;;;;11.60;6.93;;;;;;;2.65;49.36;102067.28;6216781;23;20415;-62
2022/03/09 04:55:57;;;;;;;13.75;7.68;;;;;;;2.58;49.54;102070.34;6216729;23;20081;-62
2022/03/09 04:58:24;;;;;;;10.38;7.00;;;;;;;2.67;50.54;102074.41;6216523;23;20005;-62
2022/03/09 05:00:51;;;;;;;14.80;7.28;;;;;;;2.76;49.78;102076.69;6216703;23;20110;-62
2022/03/09 05:03:16;;;;;;;13.77;7.75;;;;;;;2.79;49.36;102074.28;6216665;23;20511;-62
2022/03/09 05:05:42;;;;;;;13.88;7.10;;;;;;;2.79;49.23;102066.44;6216632;23;20000;-62
2022/03/09 05:08:09;;;;;;;10.35;7.03;;;;;;;2.90;48.94;102054.94;6217003;23;20387;-62
2022/03/09 05:10:38;;;;;;;13.82;7.35;;;;;;;2.97;48.88;102053.63;6216569;23;20008;-62
2022/03/09 05:13:04;;;;;;;10.48;6.28;;;;;;;3.04;49.16;102061.03;6216393;23;20000;-62
2022/03/09 05:15:30;;;;;;;14.52;7.38;;;;;;;3.09;48.33;102058.69;6216949;23;20378;-62
2022/03/09 05:17:56;;;;;;;13.00;7.72;;;;;;;3.11;47.95;102064.88;6216522;23;20011;-62
2022/03/09 05:20:22;;;;;;;13.77;6.88;;;;;;;3.15;48.49;102069.47;6216963;23;20008;-62
2022/03/09 05:22:48;;;;;;;11.38;6.78;;;;;;;3.17;48.37;102060.00;6216419;23;20416;-62
2022/03/09 05:25:14;;;;;;;10.98;7.18;;;;;;;3.20;48.47;102065.44;6216816;23;20011;-62
2022/03/09 05:27:40;;;;;;;13.18;7.47;;;;;;;3.21;47.86;102062.94;6216655;23;20009;-63
2022/03/09 05:30:08;;;;;;;13.05;7.05;;;;;;;3.17;47.53;102062.63;6217341;23;20012;-62
2022/03/09 05:32:33;;;;;;;14.18;7.70;;;;;;;3.08;48.12;102067.31;6216522;23;20442;-62
2022/03/09 05:34:59;;;;;;;13.52;7.15;;;;;;;2.98;48.24;102064.13;6216556;23;20005;-62
2022/03/09 05:37:24;;;;;;;11.23;7.35;;;;;;;2.86;49.04;102071.22;6216451;23;20005;-62
2022/03/09 05:39:50;;;;;;;12.82;7.25;;;;;;;2.75;48.60;102075.78;6216761;23;20008;-62
2022/03/09 05:42:15;;;;;;;16.45;7.55;;;;;;;2.71;48.73;102072.91;6216215;23;20004;-62
2022/03/09 05:44:41;;;;;;;13.05;6.80;;;;;;;2.69;49.24;102079.72;6216413;23;20005;-62
2022/03/09 05:47:11;;;;;;;16.67;7.68;;;;;;;2.60;49.46;102073.91;6215902;23;20388;-62
2022/03/09 05:49:37;;;;;;;15.43;7.05;;;;;;;2.60;49.76;102079.16;6216223;23;20009;-62
2022/03/09 05:52:04;;;;;;;13.32;7.32;;;;;;;2.57;51.18;102090.31;6216562;23;20088;-63
2022/03/09 05:54:30;;;;;;;13.73;7.32;;;;;;;2.58;49.47;102089.50;6216162;23;20483;-63
2022/03/09 05:56:55;;;;;;;13.10;7.20;;;;;;;2.59;49.21;102091.28;6216293;23;20075;-62
2022/03/09 05:59:21;;;;;;;16.27;7.38;;;;;;;2.58;49.73;102097.31;6215776;23;20070;-63
2022/03/09 06:01:47;;;;;;;15.52;7.25;;;;;;;2.54;49.70;102091.81;6215169;23;20004;-62
2022/03/09 06:04:13;;;;;;;10.55;6.78;;;;;;;2.53;49.27;102103.03;6215299;23;20069;-62
2022/03/09 06:06:38;;;;;;;12.13;7.18;;;;;;;2.56;49.33;102098.91;6215357;23;20335;-62
2022/03/09 06:09:04;;;;;;;12.02;6.97;;;;;;;2.64;49.18;102109.84;6215101;23;20039;-63
2022/03/09 06:11:29;;;;;;;13.05;7.57;;;;;;;2.68;49.06;102110.13;6215361;23;20303;-62
2022/03/09 06:13:54;;;;;;;14.23;7.57;;;;;;;2.70;48.70;102105.94;6215295;23;20000;-63
2022/03/09 06:16:20;;;;;;;11.30;7.35;;;;;;;2.78;49.42;102110.69;6215207;23;20009;-63
2022/03/09 06:18:46;;;;;;;12.05;6.65;;;;;;;2.80;48.70;102114.31;6214966;23;20009;-63
2022/03/09 06:21:13;;;;;;;12.50;7.10;;;;;;;2.83;48.45;102106.69;6214842;23;20079;-62
2022/03/09 06:23:39;;;;;;;11.38;6.18;;;;;;;2.91;49.03;102118.47;6215019;23;20008;-63
2022/03/09 06:26:05;;;;;;;14.32;6.95;;;;;;;2.94;48.26;102118.69;6215330;23;20308;-63
2022/03/09 06:28:30;;;;;;;13.25;6.93;;;;;;;3.00;48.92;102113.88;6215058;23;20001;-63
2022/03/09 06:30:57;;;;;;;13.43;7.03;;;;;;;3.05;48.28;102115.03;6214626;23;20005;-63
2022/03/09 06:33:23;;;;;;;13.88;7.10;;;;;;;3.12;48.95;102111.97;6214766;23;20008;-63
2022/03/09 06:35:48;;;;;;;13.15;7.50;;;;;;;3.12;48.20;102122.41;6214828;23;20395;-62
2022/03/09 06:38:13;;;;;;;12.77;6.95;;;;;;;3.12;48.09;102124.13;6214863;23;20007;-63
2022/03/09 06:40:39;;;;;;;11.95;6.93;;;;;;;3.10;48.27;102123.16;6213906;23;20012;-63
2022/03/09 06:43:05;;;;;;;12.20;7.20;;;;;;;3.08;48.64;102130.88;6215248;23;20001;-63
2022/03/09 06:45:30;;;;;;;15.30;7.15;;;;;;;3.09;48.02;102132.69;6214960;23;20061;-63
2022/03/09 06:47:57;;;;;;;12.93;6.88;;;;;;;3.22;48.48;102139.56;6214632;23;20012;-63
2022/03/09 06:50:22;;;;;;;13.48;7.35;;;;;;;3.35;47.59;102141.22;6214815;23;20032;-63
2022/03/09 06:52:48;;;;;;;14.30;7.22;;;;;;;3.44;47.40;102147.91;6214774;23;20012;-63
2022/03/09 06:55:13;;;;;;;12.00;6.75;;;;;;;3.62;47.76;102149.81;6214897;23;20001;-63
2022/03/09 06:57:40;;;;;;;12.07;7.10;;;;;;;3.77;47.69;102153.34;6214751;23;20005;-64
2022/03/09 07:00:16;;;;;;;14.55;7.03;;;;;;;3.88;46.94;102146.13;6214800;23;20012;-66
2022/03/09 07:02:42;;;;;;;13.57;7.70;;;;;;;4.11;46.77;102152.69;6214513;23;20012;-65
2022/03/09 07:05:09;;;;;;;12.65;7.43;;;;;;;4.35;46.61;102154.09;6214981;23;20000;-64
2022/03/09 07:07:35;;;;;;;15.27;8.18;;;;;;;4.58;45.85;102164.94;6214504;23;20013;-63
2022/03/09 07:10:01;;;;;;;22.83;11.35;;;;;;;4.76;47.81;102163.38;6215168;23;20158;-63
2022/03/09 07:12:26;;;;;;;15.65;7.90;;;;;;;4.85;44.96;102150.78;6214024;23;20450;-63
2022/03/09 07:14:52;;;;;;;16.58;8.63;;;;;;;4.92;44.86;102166.00;6214403;23;20004;-63
2022/03/09 07:17:18;;;;;;;18.25;7.93;;;;;;;5.09;43.95;102174.78;6214621;23;20008;-62
2022/03/09 07:19:44;;;;;;;14.10;7.45;;;;;;;5.15;44.08;102172.50;6214503;23;20012;-63
2022/03/09 07:22:09;;;;;;;14.55;8.18;;;;;;;5.14;43.39;102168.09;6214517;23;20008;-62
2022/03/09 07:24:35;;;;;;;13.48;8.02;;;;;;;5.21;43.84;102174.53;6215070;23;20023;-63
2022/03/09 07:27:01;;;;;;;14.75;7.70;;;;;;;5.35;43.38;102172.66;6214960;23;20070;-63
2022/03/09 07:29:27;;;;;;;14.15;7.88;;;;;;;5.37;42.68;102165.78;6212392;23;20009;-63
2022/03/09 07:31:53;;;;;;;13.63;7.68;;;;;;;5.49;43.25;102164.72;6213904;23;20043;-63
2022/03/09 07:34:22;;;;;;;17.05;8.52;;;;;;;5.66;43.50;102159.47;6215851;23;20473;-63
2022/03/09 07:36:49;;;;;;;15.75;7.78;;;;;;;5.87;43.27;102159.66;6214649;23;20038;-63
2022/03/09 07:39:15;;;;;;;13.10;8.05;;;;;;;6.04;43.16;102161.44;6216044;23;20004;-63
2022/03/09 07:41:41;;;;;;;15.00;7.80;;;;;;;6.21;42.66;102157.00;6216194;23;20019;-63
2022/03/09 07:44:07;;;;;;;12.02;7.53;;;;;;;6.28;42.48;102161.75;6216449;23;20071;-63
2022/03/09 07:46:32;;;;;;;13.27;7.53;;;;;;;6.32;41.56;102161.06;6215921;23;20012;-65
2022/03/09 07:48:57;;;;;;;13.00;7.97;;;;;;;6.43;41.24;102162.50;6216380;23;20004;-63
2022/03/09 07:51:23;;;;;;;13.98;7.75;;;;;;;6.41;41.21;102160.63;6216095;23;20013;-63
2022/03/09 07:53:48;;;;;;;12.18;7.35;;;;;;;6.26;41.64;102161.69;6216368;23;20005;-64
2022/03/09 07:56:14;;;;;;;13.60;7.50;;;;;;;6.30;41.81;102156.59;6216354;23;20010;-65
2022/03/09 07:58:40;;;;;;;14.43;8.02;;;;;;;6.25;42.14;102154.63;6216886;23;20308;-65
2022/03/09 08:01:05;;;;;;;14.52;8.20;;;;;;;6.48;41.95;102162.72;6216041;23;20332;-65
2022/03/09 08:03:33;;;;;;;11.85;7.60;;;;;;;6.47;41.46;102158.31;6215193;23;20012;-65
2022/03/09 08:05:59;;;;;;;16.50;7.85;;;;;;;6.34;40.89;102148.94;6215572;23;20028;-67
2022/03/09 08:08:25;;;;;;;13.90;7.90;;;;;;;6.57;40.90;102163.16;6215309;23;20008;-64
2022/03/09 08:10:51;;;;;;;15.70;7.70;;;;;;;6.69;40.55;102170.75;6216314;23;19996;-66
2022/03/09 08:13:17;;;;;;;11.13;7.10;;;;;;;6.83;40.59;102161.78;6216355;23;20335;-65
2022/03/09 08:15:47;;;;;;;14.38;7.55;;;;;;;7.07;41.10;102175.19;6216219;23;20104;-64
2022/03/09 08:18:18;;;;;;;15.25;8.02;;;;;;;7.28;40.32;102170.00;6216268;23;20004;-64
2022/03/09 08:20:44;;;;;;;12.35;7.07;;;;;;;7.28;39.42;102165.63;6216629;23;20000;-64
2022/03/09 08:23:09;;;;;;;12.52;8.05;;;;;;;7.41;39.89;102188.13;6217418;23;20035;-65
2022/03/09 08:25:35;;;;;;;11.70;7.53;;;;;;;7.56;39.00;102189.63;6216791;23;20008;-65
2022/03/09 08:28:01;;;;;;;12.13;7.35;;;;;;;7.83;39.10;102189.94;6216716;23;20028;-65
2022/03/09 08:30:27;;;;;;;12.18;7.78;;;;;;;8.10;38.50;102182.34;6216408;23;20027;-65
2022/03/09 08:32:53;;;;;;;13.93;7.68;;;;;;;8.34;38.08;102180.72;6216054;23;20008;-65
2022/03/09 08:35:19;;;;;;;15.55;7.75;;;;;;;8.57;36.14;102186.97;6216366;23;20051;-65
2022/03/09 08:37:44;;;;;;;15.15;7.22;;;;;;;8.80;36.05;102190.50;6216535;23;20001;-65
2022/03/09 08:40:11;;;;;;;14.50;8.88;;;;;;;8.90;35.92;102190.03;6216192;23;20084;-66
2022/03/09 08:42:37;;;;;;;12.10;7.55;;;;;;;9.06;35.75;102193.28;6216231;23;20005;-67
2022/03/09 08:45:04;;;;;;;12.52;7.93;;;;;;;9.22;36.21;102193.03;6215751;23;20028;-67
2022/03/09 08:47:29;;;;;;;13.88;7.97;;;;;;;9.46;35.36;102190.38;6214903;23;20020;-66
2022/03/09 08:49:57;;;;;;;14.98;8.43;;;;;;;9.72;35.44;102194.88;6216200;23;20011;-67
2022/03/09 08:52:23;;;;;;;14.13;8.13;;;;;;;9.89;34.60;102186.63;6216151;23;20005;-67
2022/03/09 08:54:53;;;;;;;14.23;7.90;;;;;;;10.22;34.44;102179.00;6216109;23;20012;-66
2022/03/09 08:57:20;;;;;;;15.98;8.90;;;;;;;10.23;34.78;102194.88;6216166;23;20005;-63
2022/03/09 08:59:46;;;;;;;10.68;7.35;;;;;;;10.40;33.98;102181.38;6216023;23;20004;-65
2022/03/09 09:02:12;;;;;;;15.98;8.77;;;;;;;10.34;33.89;102182.06;6216158;23;20091;-66
2022/03/09 09:04:37;;;;;;;14.02;8.25;;;;;;;10.38;34.41;102186.63;6215973;23;20412;-66
2022/03/09 09:07:03;;;;;;;18.45;8.43;;;;;;;10.59;34.55;102182.88;6215970;23;20004;-65
2022/03/09 09:09:29;;;;;;;16.25;8.43;;;;;;;10.52;34.35;102189.69;6216324;23;20139;-64
2022/03/09 09:11:54;;;;;;;15.73;8.43;;;;;;;10.59;33.86;102194.34;6215935;23;20032;-64
2022/03/09 09:14:20;;;;;;;11.68;7.65;;;;;;;10.47;33.02;102188.66;6216405;23;20005;-64
2022/03/09 09:16:46;;;;;;;11.45;8.02;;;;;;;10.50;33.87;102186.13;6215826;23;20004;-64
2022/03/09 09:19:11;;;;;;;16.75;8.65;;;;;;;10.53;33.26;102176.56;6215823;23;20102;-64
2022/03/09 09:21:37;;;;;;;14.18;8.35;;;;;;;10.64;33.97;102178.63;6215855;23;20008;-64
2022/03/09 09:24:04;;;;;;;14.88;8.45;;;;;;;10.67;33.50;102177.00;6216233;23;20006;-64
2022/03/09 09:26:29;;;;;;;18.02;8.98;;;;;;;10.83;33.71;102173.06;6215717;23;20028;-64
2022/03/09 09:28:55;;;;;;;13.85;8.65;;;;;;;10.94;33.09;102170.75;6215975;23;20106;-63
2022/03/09 09:31:20;;;;;;;17.67;8.75;;;;;;;11.07;34.71;102177.31;6215418;23;20011;-64
2022/03/09 09:33:46;;;;;;;15.63;8.50;;;;;;;11.25;32.78;102177.84;6215489;23;20082;-64
2022/03/09 09:36:11;;;;;;;16.08;8.82;;;;;;;11.27;33.47;102179.72;6214071;23;20016;-64
2022/03/09 09:38:37;;;;;;;16.00;9.75;;;;;;;11.48;32.49;102184.72;6215394;23;20335;-64
2022/03/09 09:41:03;;;;;;;16.85;9.70;;;;;;;11.69;33.42;102170.25;6215580;23;20011;-64
2022/03/09 09:43:29;;;;;;;18.27;10.50;;;;;;;11.89;32.46;102176.16;6213762;23;20004;-64
2022/03/09 09:45:56;;;;;;;22.33;10.43;;;;;;;12.07;31.97;102176.63;6215909;23;20371;-63
2022/03/09 09:48:22;;;;;;;18.17;10.85;;;;;;;12.30;32.33;102179.00;6215613;23;20067;-64
2022/03/09 09:50:48;;;;;;;20.15;11.57;;;;;;;12.49;31.09;102179.47;6215548;23;20009;-65
2022/03/09 09:53:14;;;;;;;21.17;11.70;;;;;;;12.61;31.04;102181.50;6215853;23;20011;-65
2022/03/09 09:55:41;;;;;;;24.30;10.93;;;;;;;12.58;30.97;102172.59;6215391;23;20000;-64
2022/03/09 09:58:08;;;;;;;21.80;11.02;;;;;;;12.85;31.11;102178.56;6215612;23;20096;-65
2022/03/09 10:00:34;;;;;;;23.38;11.60;;;;;;;13.01;30.08;102170.03;6215636;23;20107;-65
2022/03/09 10:02:59;;;;;;;21.45;11.13;;;;;;;13.17;31.05;102178.34;6215467;23;20009;-64
2022/03/09 10:05:26;;;;;;;18.27;10.52;;;;;;;13.18;30.04;102166.88;6215368;23;20011;-65
2022/03/09 10:08:03;;;;;;;17.40;10.55;;;;;;;13.41;30.18;102167.41;6215729;23;20485;-65
2022/03/09 10:10:31;;;;;;;15.93;9.93;;;;;;;13.64;29.73;102171.38;6215484;23;20088;-65
2022/03/09 10:13:17;;;;;;;16.23;10.05;;;;;;;13.58;30.45;102173.94;6214947;23;20005;-64
2022/03/09 10:15:48;;;;;;;19.02;10.07;;;;;;;13.48;28.84;102170.19;6214507;23;20019;-64
2022/03/09 10:18:22;;;;;;;18.25;10.57;;;;;;;13.52;29.24;102172.03;6215260;23;20281;-65
2022/03/09 10:20:50;;;;;;;16.70;10.43;;;;;;;13.62;29.67;102170.47;6215069;23;20080;-65
2022/03/09 10:23:18;;;;;;;19.13;11.48;;;;;;;13.54;29.22;102166.78;6215088;23;20407;-65
2022/03/09 10:25:46;;;;;;;18.42;10.73;;;;;;;13.67;29.04;102170.56;6215206;23;20079;-65
2022/03/09 10:28:12;;;;;;;20.63;11.07;;;;;;;13.75;29.77;102163.63;6215200;23;20009;-65
2022/03/09 10:30:40;;;;;;;16.38;10.30;;;;;;;13.81;29.68;102157.53;6215407;23;20368;-65
2022/03/09 10:33:11;;;;;;;19.38;10.88;;;;;;;13.99;29.79;102156.09;6215033;23;20051;-65
2022/03/09 10:35:47;;;;;;;18.25;10.35;;;;;;;14.22;28.43;102155.63;6215207;23;20391;-65
2022/03/09 10:38:15;;;;;;;19.40;11.60;;;;;;;14.34;28.99;102149.59;6215412;23;20088;-65
2022/03/09 10:40:43;;;;;;;19.27;10.75;;;;;;;14.57;28.90;102156.22;6214809;23;20001;-63
2022/03/09 10:43:14;;;;;;;19.27;11.52;;;;;;;14.72;29.17;102150.22;6215340;23;20000;-63
2022/03/09 10:45:59;;;;;;;19.83;10.98;;;;;;;15.12;28.31;102142.78;6213701;23;20020;-63
2022/03/09 10:48:26;;;;;;;18.00;11.38;;;;;;;15.39;27.32;102150.22;6214221;23;20027;-63
2022/03/09 10:50:54;;;;;;;20.08;11.70;;;;;;;15.43;28.20;102152.03;6215180;23;20013;-63
2022/03/09 10:53:20;;;;;;;22.38;14.05;;;;;;;15.56;27.70;102142.41;6214512;23;20007;-63
2022/03/09 10:55:46;;;;;;;19.48;11.75;;;;;;;15.77;27.23;102148.91;6214797;23;20004;-63
2022/03/09 10:58:17;;;;;;;21.10;12.30;;;;;;;15.80;27.58;102142.69;6214959;23;20039;-63
2022/03/09 11:00:51;;;;;;;21.52;12.25;;;;;;;15.69;27.46;102153.25;6215108;23;20171;-63
2022/03/09 11:03:23;;;;;;;23.25;12.57;;;;;;;15.47;27.27;102152.09;6214740;23;20012;-63
2022/03/09 11:05:52;;;;;;;23.50;13.13;;;;;;;15.13;28.49;102153.44;6214823;23;20000;-63
2022/03/09 11:08:40;;;;;;;19.63;12.88;;;;;;;15.12;28.23;102146.34;6215427;23;20009;-63
2022/03/09 11:11:14;;;;;;;22.20;12.52;;;;;;;15.15;28.68;102145.47;6215422;23;20005;-62
2022/03/09 11:13:40;;;;;;;25.08;13.40;;;;;;;15.38;28.47;102151.09;6214897;23;20004;-63
2022/03/09 11:16:07;;;;;;;25.98;14.02;;;;;;;15.54;28.18;102145.03;6214902;23;20486;-63
2022/03/09 11:18:34;;;;;;;23.50;14.15;;;;;;;15.57;27.64;102139.75;6214556;23;20447;-65
2022/03/09 11:21:05;;;;;;;25.42;14.35;;;;;;;15.60;28.06;102144.25;6214508;23;20001;-65